Time;durP1;ratioP1;P1;durP2;ratioP2;P2;SDS_P1;SDS_P2;PMS_P1;PMS_P2;Temp;Humidity;BMP_temperature;BMP_pressure;BME280_temperature;BME280_humidity;BME280_pressure;Samples;Min_cycle;Max_cycle;Signal;HPM_P1;HPM_P2
2024/01/13 00:01:46;;;;;;;48.65;20.65;;;;;;;;;;7367470;19;20684;-74
2024/01/13 00:04:11;;;;;;;44.03;20.15;;;;;;;;;;7365842;19;20513;-74
2024/01/13 00:06:37;;;;;;;49.42;20.73;;;;;;;;;;7367081;19;20078;-74
2024/01/13 00:09:02;;;;;;;44.35;20.83;;;;;;;;;;7388358;19;20147;-75
2024/01/13 00:11:28;;;;;;;45.15;20.35;;;;;;;;;;7370977;19;20006;-74
2024/01/13 00:13:53;;;;;;;44.83;20.45;;;;;;;;;;7381998;19;20121;-74
2024/01/13 00:16:18;;;;;;;48.30;19.83;;;;;;;;;;7376083;19;20109;-73
2024/01/13 00:18:44;;;;;;;44.00;19.38;;;;;;;;;;7362928;19;20018;-74
2024/01/13 00:21:09;;;;;;;47.88;20.15;;;;;;;;;;7386433;19;20010;-74
2024/01/13 00:23:35;;;;;;;45.17;18.92;;;;;;;;;;7366010;19;20030;-75
2024/01/13 00:26:00;;;;;;;40.28;20.05;;;;;;;;;;7363214;19;20551;-74
2024/01/13 00:28:25;;;;;;;42.92;20.50;;;;;;;;;;7364812;19;20010;-74
2024/01/13 00:30:51;;;;;;;43.72;18.88;;;;;;;;;;7365414;19;20542;-74
2024/01/13 00:33:16;;;;;;;46.80;18.60;;;;;;;;;;7369588;19;20367;-74
2024/01/13 00:35:41;;;;;;;37.05;18.08;;;;;;;;;;7387903;19;20511;-74
2024/01/13 00:38:07;;;;;;;38.25;18.25;;;;;;;;;;7364641;19;20034;-74
2024/01/13 00:40:32;;;;;;;37.72;18.90;;;;;;;;;;7366077;19;20006;-74
2024/01/13 00:42:59;;;;;;;43.83;18.75;;;;;;;;;;7372555;19;20636;-74
2024/01/13 00:45:24;;;;;;;43.95;18.98;;;;;;;;;;7373279;19;20002;-74
2024/01/13 00:47:50;;;;;;;40.30;18.65;;;;;;;;;;7389348;19;20014;-74
2024/01/13 00:50:15;;;;;;;40.50;18.50;;;;;;;;;;7368897;19;20358;-74
2024/01/13 00:52:40;;;;;;;40.30;17.83;;;;;;;;;;7367928;19;20011;-74
2024/01/13 00:55:06;;;;;;;43.30;18.45;;;;;;;;;;7367867;19;20034;-74
2024/01/13 00:57:31;;;;;;;43.65;19.63;;;;;;;;;;7373696;19;20007;-74
2024/01/13 00:59:57;;;;;;;44.90;19.05;;;;;;;;;;7396344;19;20360;-75
2024/01/13 01:02:22;;;;;;;45.42;18.80;;;;;;;;;;7366275;19;20013;-75
2024/01/13 01:04:47;;;;;;;39.80;18.52;;;;;;;;;;7364846;19;20027;-74
2024/01/13 01:07:12;;;;;;;42.75;20.48;;;;;;;;;;7366307;19;20030;-74
2024/01/13 01:09:38;;;;;;;40.67;19.30;;;;;;;;;;7366180;19;20003;-74
2024/01/13 01:12:04;;;;;;;46.03;19.98;;;;;;;;;;7388584;19;20372;-74
2024/01/13 01:14:29;;;;;;;41.45;19.13;;;;;;;;;;7364132;19;20002;-74
2024/01/13 01:16:54;;;;;;;45.45;19.17;;;;;;;;;;7365466;19;20014;-74
2024/01/13 01:19:20;;;;;;;41.13;19.83;;;;;;;;;;7365089;19;20030;-74
2024/01/13 01:21:45;;;;;;;39.78;18.92;;;;;;;;;;7366624;19;20021;-75
2024/01/13 01:24:11;;;;;;;42.50;18.95;;;;;;;;;;7386719;19;20021;-75
2024/01/13 01:26:36;;;;;;;41.38;19.00;;;;;;;;;;7364239;19;20104;-74
2024/01/13 01:29:01;;;;;;;43.70;19.60;;;;;;;;;;7364520;19;20016;-73
2024/01/13 01:31:26;;;;;;;47.38;20.33;;;;;;;;;;7364841;19;20006;-74
2024/01/13 01:33:52;;;;;;;43.33;17.95;;;;;;;;;;7366312;19;20003;-73
2024/01/13 01:36:17;;;;;;;43.78;18.85;;;;;;;;;;7367759;19;20679;-74
2024/01/13 01:38:43;;;;;;;44.05;19.52;;;;;;;;;;7388110;19;20070;-73
2024/01/13 01:41:09;;;;;;;35.65;17.13;;;;;;;;;;7370592;19;20047;-74
2024/01/13 01:43:34;;;;;;;44.60;18.98;;;;;;;;;;7363086;19;20236;-74
2024/01/13 01:46:01;;;;;;;47.30;19.85;;;;;;;;;;7365116;19;20389;-74
2024/01/13 01:48:34;;;;;;;44.72;19.40;;;;;;;;;;7363743;19;20007;-74
2024/01/13 01:51:00;;;;;;;46.67;18.95;;;;;;;;;;7386954;19;20002;-74
2024/01/13 01:53:26;;;;;;;50.50;20.05;;;;;;;;;;7377389;19;20030;-74
2024/01/13 01:55:51;;;;;;;41.20;19.10;;;;;;;;;;7377556;19;20010;-73
2024/01/13 01:58:20;;;;;;;46.55;20.30;;;;;;;;;;7378509;19;20089;-74
2024/01/13 02:00:47;;;;;;;47.08;19.80;;;;;;;;;;7382772;19;19999;-74
2024/01/13 02:03:13;;;;;;;42.90;19.00;;;;;;;;;;7406792;19;20010;-74
2024/01/13 02:05:39;;;;;;;41.05;19.13;;;;;;;;;;7382438;19;20483;-74
2024/01/13 02:08:05;;;;;;;38.72;18.98;;;;;;;;;;7377436;19;20075;-74
2024/01/13 02:10:30;;;;;;;39.22;18.60;;;;;;;;;;7378779;19;20011;-74
2024/01/13 02:12:55;;;;;;;41.05;18.48;;;;;;;;;;7378537;19;20017;-74
2024/01/13 02:15:21;;;;;;;46.28;19.50;;;;;;;;;;7378455;19;20011;-75
2024/01/13 02:17:46;;;;;;;44.30;19.42;;;;;;;;;;7397947;19;20006;-74
2024/01/13 02:20:12;;;;;;;45.58;19.02;;;;;;;;;;7374453;19;20395;-73
2024/01/13 02:22:37;;;;;;;38.75;18.90;;;;;;;;;;7375699;19;20803;-74
2024/01/13 02:25:04;;;;;;;41.97;19.15;;;;;;;;;;7383511;19;20047;-73
2024/01/13 02:27:30;;;;;;;44.33;19.13;;;;;;;;;;7397502;19;20010;-75
2024/01/13 02:29:55;;;;;;;42.67;18.75;;;;;;;;;;7398394;19;20501;-73
2024/01/13 02:32:21;;;;;;;38.35;17.35;;;;;;;;;;7375728;19;20014;-74
2024/01/13 02:34:47;;;;;;;43.15;19.52;;;;;;;;;;7375728;19;20010;-74
2024/01/13 02:37:12;;;;;;;39.35;18.42;;;;;;;;;;7378424;19;20030;-73
2024/01/13 02:39:38;;;;;;;42.08;18.90;;;;;;;;;;7377858;19;20118;-75
2024/01/13 02:42:03;;;;;;;38.90;17.95;;;;;;;;;;7400139;19;20014;-73
2024/01/13 02:44:29;;;;;;;44.10;18.48;;;;;;;;;;7374232;19;20334;-74
2024/01/13 02:46:55;;;;;;;39.67;18.95;;;;;;;;;;7375956;19;20010;-75
2024/01/13 02:49:20;;;;;;;39.50;18.50;;;;;;;;;;7375821;19;20021;-73
2024/01/13 02:51:45;;;;;;;40.15;17.83;;;;;;;;;;7379090;19;20017;-74
2024/01/13 02:54:11;;;;;;;38.40;19.02;;;;;;;;;;7396807;19;20840;-73
2024/01/13 02:56:36;;;;;;;44.28;17.90;;;;;;;;;;7376483;19;20007;-72
2024/01/13 02:59:01;;;;;;;39.53;18.02;;;;;;;;;;7375067;19;20394;-74
2024/01/13 03:01:29;;;;;;;41.45;17.92;;;;;;;;;;7375879;19;20109;-74
2024/01/13 03:03:55;;;;;;;37.92;18.98;;;;;;;;;;7368027;19;20013;-74
2024/01/13 03:06:22;;;;;;;40.28;18.13;;;;;;;;;;7368596;19;20007;-74
2024/01/13 03:08:47;;;;;;;43.92;20.75;;;;;;;;;;7391029;19;20010;-74
2024/01/13 03:11:13;;;;;;;39.10;19.30;;;;;;;;;;7368519;19;20013;-74
2024/01/13 03:13:38;;;;;;;42.22;19.02;;;;;;;;;;7368293;19;20010;-74
2024/01/13 03:16:04;;;;;;;37.50;18.83;;;;;;;;;;7369598;19;20081;-74
2024/01/13 03:18:29;;;;;;;39.50;18.55;;;;;;;;;;7369026;19;20084;-74
2024/01/13 03:20:54;;;;;;;41.75;17.27;;;;;;;;;;7393429;19;20096;-74
2024/01/13 03:23:20;;;;;;;38.42;18.48;;;;;;;;;;7369713;19;20070;-74
2024/01/13 03:25:45;;;;;;;39.15;16.83;;;;;;;;;;7367766;19;19999;-74
2024/01/13 03:28:10;;;;;;;39.35;16.60;;;;;;;;;;7369243;19;20337;-74
2024/01/13 03:30:36;;;;;;;38.08;17.15;;;;;;;;;;7372365;19;20015;-74
2024/01/13 03:33:01;;;;;;;37.42;17.30;;;;;;;;;;7391491;19;20138;-74
2024/01/13 03:35:27;;;;;;;36.05;17.35;;;;;;;;;;7369807;19;20081;-73
2024/01/13 03:37:54;;;;;;;44.72;18.23;;;;;;;;;;7369988;19;20006;-73
2024/01/13 03:40:19;;;;;;;36.47;17.15;;;;;;;;;;7371452;19;20043;-73
2024/01/13 03:42:45;;;;;;;38.28;17.58;;;;;;;;;;7372790;19;20402;-74
2024/01/13 03:45:12;;;;;;;42.75;17.20;;;;;;;;;;7395311;19;20560;-73
2024/01/13 03:47:38;;;;;;;38.70;17.45;;;;;;;;;;7369257;19;20540;-75
2024/01/13 03:50:06;;;;;;;36.95;17.23;;;;;;;;;;7368556;19;20070;-73
2024/01/13 03:52:31;;;;;;;34.25;16.63;;;;;;;;;;7368253;19;20014;-73
2024/01/13 03:54:57;;;;;;;45.72;17.63;;;;;;;;;;7367733;19;20018;-73
2024/01/13 03:57:22;;;;;;;39.65;17.38;;;;;;;;;;7367347;19;20013;-73
2024/01/13 03:59:47;;;;;;;38.00;16.80;;;;;;;;;;7390997;19;20127;-73
2024/01/13 04:02:13;;;;;;;37.63;17.00;;;;;;;;;;7368132;19;20541;-74
2024/01/13 04:04:38;;;;;;;34.28;17.67;;;;;;;;;;7367251;19;20027;-74
2024/01/13 04:07:04;;;;;;;37.42;17.10;;;;;;;;;;7370892;19;20172;-75
2024/01/13 04:09:29;;;;;;;37.65;16.80;;;;;;;;;;7369520;19;20006;-73
2024/01/13 04:11:54;;;;;;;38.10;17.10;;;;;;;;;;7389767;19;20002;-73
2024/01/13 04:14:20;;;;;;;36.85;17.13;;;;;;;;;;7366485;19;20006;-73
2024/01/13 04:16:45;;;;;;;37.25;16.92;;;;;;;;;;7368315;19;20098;-73
2024/01/13 04:19:10;;;;;;;40.85;17.88;;;;;;;;;;7366197;19;20006;-73
2024/01/13 04:21:36;;;;;;;38.35;17.40;;;;;;;;;;7368651;19;20012;-74
2024/01/13 04:24:04;;;;;;;39.72;17.42;;;;;;;;;;7387487;19;20003;-73
2024/01/13 04:26:29;;;;;;;35.33;17.27;;;;;;;;;;7367821;19;19999;-74
2024/01/13 04:28:54;;;;;;;36.47;17.55;;;;;;;;;;7373589;19;20006;-74
2024/01/13 04:31:20;;;;;;;37.22;17.02;;;;;;;;;;7372284;19;20115;-74
2024/01/13 04:33:45;;;;;;;33.42;16.35;;;;;;;;;;7371007;19;20010;-73
2024/01/13 04:36:11;;;;;;;40.13;17.60;;;;;;;;;;7391828;19;20002;-74
2024/01/13 04:38:36;;;;;;;38.55;17.48;;;;;;;;;;7368112;19;20017;-74
2024/01/13 04:41:02;;;;;;;38.38;17.23;;;;;;;;;;7369732;19;20048;-75
2024/01/13 04:43:28;;;;;;;35.67;17.50;;;;;;;;;;7368987;19;20010;-72
2024/01/13 04:45:54;;;;;;;36.25;17.52;;;;;;;;;;7367784;19;20372;-75
2024/01/13 04:48:20;;;;;;;37.75;17.92;;;;;;;;;;7365224;19;20014;-73
2024/01/13 04:50:45;;;;;;;44.55;19.67;;;;;;;;;;7388156;19;20472;-73
2024/01/13 04:53:11;;;;;;;40.30;18.08;;;;;;;;;;7365000;19;20224;-73
2024/01/13 04:55:36;;;;;;;40.38;18.30;;;;;;;;;;7366195;19;20014;-74
2024/01/13 04:58:01;;;;;;;39.33;17.75;;;;;;;;;;7366830;19;20018;-74
2024/01/13 05:00:28;;;;;;;37.97;18.83;;;;;;;;;;7366127;19;19998;-74
2024/01/13 05:02:53;;;;;;;43.90;18.58;;;;;;;;;;7386540;19;20011;-74
2024/01/13 05:05:18;;;;;;;40.92;19.67;;;;;;;;;;7365078;19;20744;-75
2024/01/13 05:07:44;;;;;;;41.85;19.27;;;;;;;;;;7364573;19;20007;-75
2024/01/13 05:10:09;;;;;;;37.60;18.60;;;;;;;;;;7365240;19;20007;-74
2024/01/13 05:12:34;;;;;;;39.72;19.08;;;;;;;;;;7366236;19;20692;-74
2024/01/13 05:15:00;;;;;;;42.60;18.55;;;;;;;;;;7387346;19;20029;-73
2024/01/13 05:17:25;;;;;;;39.30;17.73;;;;;;;;;;7364166;19;20484;-73
2024/01/13 05:19:50;;;;;;;54.80;25.85;;;;;;;;;;7364514;19;20480;-73
2024/01/13 05:22:16;;;;;;;40.85;19.42;;;;;;;;;;7365782;19;20074;-74
2024/01/13 05:24:42;;;;;;;40.38;19.35;;;;;;;;;;7366459;19;20014;-75
2024/01/13 05:27:08;;;;;;;37.15;18.63;;;;;;;;;;7385360;19;19999;-73
2024/01/13 05:29:33;;;;;;;40.40;19.20;;;;;;;;;;7365242;19;20014;-73
2024/01/13 05:31:58;;;;;;;44.60;18.92;;;;;;;;;;7365270;19;20007;-73
2024/01/13 05:34:24;;;;;;;39.17;18.92;;;;;;;;;;7363966;19;20017;-73
2024/01/13 05:36:49;;;;;;;40.00;19.25;;;;;;;;;;7365376;19;20010;-73
2024/01/13 05:39:14;;;;;;;38.58;18.15;;;;;;;;;;7387278;19;20338;-73
2024/01/13 05:41:39;;;;;;;35.67;17.65;;;;;;;;;;7364254;19;20002;-73
2024/01/13 05:44:05;;;;;;;37.30;18.23;;;;;;;;;;7362449;19;20078;-74
2024/01/13 05:46:30;;;;;;;39.25;18.80;;;;;;;;;;7365141;19;20034;-74
2024/01/13 05:48:55;;;;;;;39.08;17.92;;;;;;;;;;7361947;19;20045;-74
2024/01/13 05:51:21;;;;;;;37.90;17.85;;;;;;;;;;7365380;19;20011;-75
2024/01/13 05:53:46;;;;;;;38.65;18.90;;;;;;;;;;7385088;19;19999;-73
2024/01/13 05:56:12;;;;;;;36.95;18.67;;;;;;;;;;7363250;19;20010;-73
2024/01/13 05:58:39;;;;;;;40.60;18.02;;;;;;;;;;7363284;19;20429;-74
2024/01/13 06:01:04;;;;;;;34.85;17.17;;;;;;;;;;7363960;19;20464;-73
2024/01/13 06:03:30;;;;;;;34.80;18.38;;;;;;;;;;7365633;19;20050;-74
2024/01/13 06:05:56;;;;;;;41.35;17.92;;;;;;;;;;7387349;19;20059;-74
2024/01/13 06:08:21;;;;;;;36.42;17.80;;;;;;;;;;7362907;19;20006;-74
2024/01/13 06:10:46;;;;;;;37.05;17.58;;;;;;;;;;7363635;19;20476;-74
2024/01/13 06:13:12;;;;;;;39.00;18.92;;;;;;;;;;7363906;19;20437;-74
2024/01/13 06:15:37;;;;;;;38.45;17.60;;;;;;;;;;7364120;19;20020;-74
2024/01/13 06:18:03;;;;;;;39.80;18.88;;;;;;;;;;7385085;19;19999;-73
2024/01/13 06:20:28;;;;;;;34.55;17.63;;;;;;;;;;7363521;19;20002;-73
2024/01/13 06:22:53;;;;;;;36.97;17.90;;;;;;;;;;7363039;19;20092;-73
2024/01/13 06:25:19;;;;;;;38.10;18.08;;;;;;;;;;7362843;19;20026;-73
2024/01/13 06:27:44;;;;;;;41.45;20.00;;;;;;;;;;7363818;19;20031;-73
2024/01/13 06:30:12;;;;;;;34.47;16.92;;;;;;;;;;7385632;19;20026;-73
2024/01/13 06:32:37;;;;;;;37.63;18.20;;;;;;;;;;7362697;19;20457;-73
2024/01/13 06:35:03;;;;;;;42.45;19.48;;;;;;;;;;7364096;19;20120;-74
2024/01/13 06:37:28;;;;;;;42.08;18.38;;;;;;;;;;7363556;19;20495;-74
2024/01/13 06:39:56;;;;;;;38.03;17.42;;;;;;;;;;7364334;19;20097;-74
2024/01/13 06:42:22;;;;;;;33.50;16.85;;;;;;;;;;7362607;19;20389;-74
2024/01/13 06:44:48;;;;;;;37.95;17.25;;;;;;;;;;7391165;19;20010;-73
2024/01/13 06:47:14;;;;;;;32.72;16.27;;;;;;;;;;7368674;19;20038;-75
2024/01/13 06:49:39;;;;;;;29.08;14.70;;;;;;;;;;7376768;19;20011;-73
2024/01/13 06:52:05;;;;;;;32.17;15.00;;;;;;;;;;7381614;19;20694;-74
2024/01/13 06:54:33;;;;;;;31.17;15.98;;;;;;;;;;7370304;19;20125;-73
2024/01/13 06:56:58;;;;;;;38.00;17.83;;;;;;;;;;7407090;19;20023;-73
2024/01/13 06:59:23;;;;;;;32.90;16.35;;;;;;;;;;7394871;19;20055;-74
2024/01/13 07:01:49;;;;;;;35.92;17.50;;;;;;;;;;7394982;19;19995;-74
2024/01/13 07:04:14;;;;;;;38.83;15.88;;;;;;;;;;7384669;19;20120;-75
2024/01/13 07:06:39;;;;;;;34.25;16.20;;;;;;;;;;7382143;19;20011;-75
2024/01/13 07:09:05;;;;;;;33.78;16.65;;;;;;;;;;7387124;19;20080;-74
2024/01/13 07:11:30;;;;;;;31.77;13.98;;;;;;;;;;7365731;19;20138;-74
2024/01/13 07:13:55;;;;;;;29.95;14.80;;;;;;;;;;7364241;19;20105;-75
2024/01/13 07:16:21;;;;;;;37.80;17.63;;;;;;;;;;7368779;19;20002;-75
2024/01/13 07:18:46;;;;;;;28.52;13.68;;;;;;;;;;7367210;19;20006;-74
2024/01/13 07:21:11;;;;;;;27.42;15.68;;;;;;;;;;7391470;19;19998;-75
2024/01/13 07:23:37;;;;;;;23.25;12.07;;;;;;;;;;7366639;19;20007;-75
2024/01/13 07:26:02;;;;;;;25.75;13.20;;;;;;;;;;7368011;19;20012;-75
2024/01/13 07:28:28;;;;;;;27.05;12.45;;;;;;;;;;7366422;19;20010;-75
2024/01/13 07:30:53;;;;;;;25.25;11.65;;;;;;;;;;7369879;19;20780;-75
2024/01/13 07:33:18;;;;;;;28.77;11.40;;;;;;;;;;7367743;19;20702;-74
2024/01/13 07:35:44;;;;;;;25.92;12.15;;;;;;;;;;7390783;19;20010;-74
2024/01/13 07:38:09;;;;;;;25.38;11.10;;;;;;;;;;7369156;19;20002;-74
2024/01/13 07:40:35;;;;;;;24.75;11.95;;;;;;;;;;7371771;19;20345;-74
2024/01/13 07:43:01;;;;;;;25.23;13.18;;;;;;;;;;7368268;19;20018;-75
2024/01/13 07:45:27;;;;;;;28.55;13.70;;;;;;;;;;7369258;19;20372;-74
2024/01/13 07:47:52;;;;;;;22.65;12.27;;;;;;;;;;7387373;19;20006;-75
2024/01/13 07:50:17;;;;;;;29.33;13.73;;;;;;;;;;7366909;19;19998;-75
2024/01/13 07:52:43;;;;;;;27.10;13.27;;;;;;;;;;7367202;19;20477;-75
2024/01/13 07:55:08;;;;;;;26.23;12.32;;;;;;;;;;7367893;19;20015;-75
2024/01/13 07:57:34;;;;;;;27.23;12.55;;;;;;;;;;7368046;19;20352;-74
2024/01/13 08:00:00;;;;;;;26.80;12.90;;;;;;;;;;7390187;19;20006;-75
2024/01/13 08:02:26;;;;;;;23.20;11.80;;;;;;;;;;7368038;19;20017;-74
2024/01/13 08:04:51;;;;;;;23.60;11.45;;;;;;;;;;7366381;19;20017;-75
2024/01/13 08:07:17;;;;;;;23.80;11.52;;;;;;;;;;7366639;19;20024;-74
2024/01/13 08:09:42;;;;;;;27.13;12.48;;;;;;;;;;7368775;19;20006;-74
2024/01/13 08:12:07;;;;;;;23.38;11.80;;;;;;;;;;7391026;19;20003;-74
2024/01/13 08:14:33;;;;;;;23.33;11.65;;;;;;;;;;7366679;19;20007;-74
2024/01/13 08:16:58;;;;;;;26.50;11.93;;;;;;;;;;7367170;19;20031;-74
2024/01/13 08:19:23;;;;;;;23.05;11.70;;;;;;;;;;7368187;19;20183;-74
2024/01/13 08:21:52;;;;;;;22.33;12.40;;;;;;;;;;7369176;19;20010;-74
2024/01/13 08:24:17;;;;;;;27.25;12.10;;;;;;;;;;7370068;19;20006;-74
2024/01/13 08:26:42;;;;;;;25.20;12.00;;;;;;;;;;7391173;19;19998;-74
2024/01/13 08:29:09;;;;;;;23.05;11.68;;;;;;;;;;7368769;19;20002;-74
2024/01/13 08:31:34;;;;;;;27.92;11.65;;;;;;;;;;7371661;19;20002;-74
2024/01/13 08:34:00;;;;;;;31.08;15.70;;;;;;;;;;7374525;19;20558;-74
2024/01/13 08:36:25;;;;;;;56.47;31.17;;;;;;;;;;7370646;19;20007;-74
2024/01/13 08:38:50;;;;;;;25.02;12.20;;;;;;;;;;7390721;19;20006;-74
2024/01/13 08:41:16;;;;;;;22.52;11.98;;;;;;;;;;7368909;19;20026;-74
2024/01/13 08:43:41;;;;;;;22.67;11.63;;;;;;;;;;7366866;19;20028;-74
2024/01/13 08:46:08;;;;;;;24.80;12.13;;;;;;;;;;7368269;19;20014;-74
2024/01/13 08:48:34;;;;;;;27.10;13.68;;;;;;;;;;7372294;19;20094;-74
2024/01/13 08:50:59;;;;;;;20.95;11.60;;;;;;;;;;7391960;19;20027;-74
2024/01/13 08:53:27;;;;;;;22.25;12.50;;;;;;;;;;7365352;19;20077;-74
2024/01/13 08:55:52;;;;;;;21.35;12.15;;;;;;;;;;7368111;19;20003;-74
2024/01/13 08:58:17;;;;;;;22.83;11.88;;;;;;;;;;7367589;19;20016;-74
2024/01/13 09:00:43;;;;;;;25.08;11.55;;;;;;;;;;7365840;19;20014;-74
2024/01/13 09:03:08;;;;;;;24.38;12.48;;;;;;;;;;7398021;19;20002;-74
2024/01/13 09:05:33;;;;;;;20.73;11.73;;;;;;;;;;7383483;19;20021;-74
2024/01/13 09:07:59;;;;;;;23.02;12.32;;;;;;;;;;7380150;19;20002;-74
2024/01/13 09:10:25;;;;;;;22.60;11.98;;;;;;;;;;7377503;19;20548;-74
2024/01/13 09:12:50;;;;;;;21.10;11.32;;;;;;;;;;7373694;19;20002;-74
2024/01/13 09:15:15;;;;;;;20.63;11.13;;;;;;;;;;7385587;19;20037;-75
2024/01/13 09:17:41;;;;;;;22.20;11.82;;;;;;;;;;7384528;19;20010;-74
2024/01/13 09:20:09;;;;;;;21.38;12.27;;;;;;;;;;7371456;19;19999;-74
2024/01/13 09:22:34;;;;;;;20.70;12.32;;;;;;;;;;7368976;19;20078;-74
2024/01/13 09:25:00;;;;;;;25.13;11.00;;;;;;;;;;7370782;19;20018;-74
2024/01/13 09:27:25;;;;;;;22.80;12.07;;;;;;;;;;7380004;19;20022;-74
2024/01/13 09:29:51;;;;;;;20.75;10.88;;;;;;;;;;7403357;19;20009;-74
2024/01/13 09:32:16;;;;;;;21.58;11.07;;;;;;;;;;7374563;19;20010;-74
2024/01/13 09:34:41;;;;;;;20.17;11.40;;;;;;;;;;7367991;19;19998;-74
2024/01/13 09:37:07;;;;;;;20.13;10.90;;;;;;;;;;7365898;19;20028;-74
2024/01/13 09:39:33;;;;;;;20.80;12.38;;;;;;;;;;7366602;19;20041;-74
2024/01/13 09:42:01;;;;;;;21.17;12.35;;;;;;;;;;7387845;19;19998;-73
2024/01/13 09:44:28;;;;;;;25.60;13.60;;;;;;;;;;7363385;19;20025;-73
2024/01/13 09:46:56;;;;;;;21.33;12.25;;;;;;;;;;7363951;19;20014;-74
2024/01/13 09:49:24;;;;;;;18.05;10.95;;;;;;;;;;7365934;19;20465;-74
2024/01/13 09:51:50;;;;;;;19.25;10.35;;;;;;;;;;7365774;19;20006;-75
2024/01/13 09:54:22;;;;;;;18.48;10.48;;;;;;;;;;7382704;19;20018;-75
2024/01/13 09:56:48;;;;;;;16.73;9.98;;;;;;;;;;7386564;19;20142;-75
2024/01/13 09:59:14;;;;;;;16.63;10.05;;;;;;;;;;7365597;19;20002;-75
2024/01/13 10:01:40;;;;;;;17.15;10.35;;;;;;;;;;7365503;19;20014;-74
2024/01/13 10:04:06;;;;;;;16.55;9.35;;;;;;;;;;7365214;19;20003;-74
2024/01/13 10:06:33;;;;;;;15.32;8.85;;;;;;;;;;7365797;19;20364;-74
2024/01/13 10:08:59;;;;;;;15.02;8.50;;;;;;;;;;7391441;19;20023;-75
2024/01/13 10:11:24;;;;;;;14.25;8.70;;;;;;;;;;7364768;19;20010;-74
2024/01/13 10:14:07;;;;;;;14.13;8.70;;;;;;;;;;7368878;19;20472;-74
2024/01/13 10:16:33;;;;;;;13.93;7.80;;;;;;;;;;7372046;19;20008;-74
2024/01/13 10:19:03;;;;;;;14.50;8.95;;;;;;;;;;7371985;19;20015;-74
2024/01/13 10:21:29;;;;;;;13.50;7.95;;;;;;;;;;7373217;19;20014;-74
2024/01/13 10:23:55;;;;;;;12.50;7.78;;;;;;;;;;7390510;19;19998;-74
2024/01/13 10:26:22;;;;;;;12.73;7.45;;;;;;;;;;7371107;19;20089;-74
2024/01/13 10:28:48;;;;;;;13.27;7.20;;;;;;;;;;7370807;19;20010;-74
2024/01/13 10:31:15;;;;;;;12.80;7.38;;;;;;;;;;7371977;19;20105;-74
2024/01/13 10:33:44;;;;;;;13.05;7.50;;;;;;;;;;7370866;19;20740;-74
2024/01/13 10:36:10;;;;;;;13.13;7.75;;;;;;;;;;7394961;19;20620;-75
2024/01/13 10:38:39;;;;;;;13.45;8.15;;;;;;;;;;7366880;19;20084;-75
2024/01/13 10:41:05;;;;;;;13.25;7.38;;;;;;;;;;7374180;19;19998;-73
2024/01/13 10:43:31;;;;;;;14.20;7.97;;;;;;;;;;7374599;19;20479;-73
2024/01/13 10:46:02;;;;;;;10.45;6.47;;;;;;;;;;7369121;19;20003;-75
2024/01/13 10:48:37;;;;;;;12.82;7.78;;;;;;;;;;7369553;19;20761;-74
2024/01/13 10:51:08;;;;;;;12.15;7.05;;;;;;;;;;7392472;19;20022;-74
2024/01/13 10:53:34;;;;;;;14.55;6.97;;;;;;;;;;7371007;19;20006;-75
2024/01/13 10:56:03;;;;;;;10.77;6.65;;;;;;;;;;7375525;19;20014;-74
2024/01/13 10:58:29;;;;;;;13.00;6.63;;;;;;;;;;7371005;19;20774;-74
2024/01/13 11:00:54;;;;;;;10.40;6.00;;;;;;;;;;7373161;19;20028;-74
2024/01/13 11:03:21;;;;;;;11.90;7.05;;;;;;;;;;7373764;19;20009;-73
2024/01/13 11:06:42;;;;;;;13.75;7.65;;;;;;;;;;7400848;19;20007;-74
2024/01/13 11:09:11;;;;;;;12.52;6.82;;;;;;;;;;7375428;19;20007;-74
2024/01/13 11:11:44;;;;;;;11.07;6.07;;;;;;;;;;7396715;19;20138;-73
2024/01/13 11:14:14;;;;;;;10.20;6.28;;;;;;;;;;7367964;19;19998;-73
2024/01/13 11:16:44;;;;;;;9.10;5.40;;;;;;;;;;7377091;19;20483;-74
2024/01/13 11:19:10;;;;;;;10.03;6.07;;;;;;;;;;7379759;19;20007;-73
2024/01/13 11:21:35;;;;;;;11.07;6.45;;;;;;;;;;7369052;19;20180;-73
2024/01/13 11:24:07;;;;;;;12.85;6.10;;;;;;;;;;7389428;19;20132;-74
2024/01/13 11:26:37;;;;;;;12.02;6.32;;;;;;;;;;7369115;19;20013;-74
2024/01/13 11:29:18;;;;;;;13.10;6.22;;;;;;;;;;7371469;19;20006;-74
2024/01/13 11:31:45;;;;;;;13.65;6.70;;;;;;;;;;7373085;19;20006;-74
2024/01/13 11:34:13;;;;;;;10.95;6.38;;;;;;;;;;7369191;19;20006;-74
2024/01/13 11:36:45;;;;;;;12.23;7.00;;;;;;;;;;7370801;19;20011;-74
2024/01/13 11:39:10;;;;;;;14.27;6.93;;;;;;;;;;7393121;19;19999;-75
2024/01/13 11:41:37;;;;;;;13.98;7.10;;;;;;;;;;7369919;19;20739;-75
2024/01/13 11:44:03;;;;;;;14.00;7.20;;;;;;;;;;7369220;19;20023;-75
2024/01/13 11:46:31;;;;;;;13.80;7.68;;;;;;;;;;7374272;19;20014;-75
2024/01/13 11:49:02;;;;;;;14.02;7.30;;;;;;;;;;7374097;19;20021;-74
2024/01/13 11:51:59;;;;;;;14.47;6.97;;;;;;;;;;7374836;19;19999;-74
2024/01/13 11:54:26;;;;;;;12.05;6.57;;;;;;;;;;7373602;19;20277;-75
2024/01/13 11:56:52;;;;;;;13.05;7.45;;;;;;;;;;7396904;19;20445;-74
2024/01/13 11:59:18;;;;;;;13.45;7.93;;;;;;;;;;7372724;19;20021;-74
2024/01/13 12:01:45;;;;;;;28.38;13.65;;;;;;;;;;7374426;19;20011;-75
2024/01/13 12:04:10;;;;;;;35.25;19.73;;;;;;;;;;7369594;19;20042;-75
2024/01/13 12:06:36;;;;;;;15.57;8.80;;;;;;;;;;7369860;19;20026;-74
2024/01/13 12:09:02;;;;;;;12.90;7.43;;;;;;;;;;7390469;19;20082;-74
2024/01/13 12:11:28;;;;;;;14.13;7.60;;;;;;;;;;7368002;19;20006;-74
2024/01/13 12:13:53;;;;;;;13.63;7.95;;;;;;;;;;7367525;19;20037;-74
2024/01/13 12:16:19;;;;;;;14.13;7.78;;;;;;;;;;7373264;19;20019;-74
2024/01/13 12:18:47;;;;;;;14.80;8.05;;;;;;;;;;7372553;19;20014;-74
2024/01/13 12:21:14;;;;;;;14.88;7.88;;;;;;;;;;7401305;19;20010;-74
2024/01/13 12:23:41;;;;;;;16.33;8.75;;;;;;;;;;7385724;19;20011;-74
2024/01/13 12:26:07;;;;;;;14.32;8.55;;;;;;;;;;7379671;19;20014;-73
2024/01/13 12:28:33;;;;;;;12.90;7.63;;;;;;;;;;7369529;19;20011;-73
2024/01/13 12:31:02;;;;;;;14.32;8.00;;;;;;;;;;7370505;19;20862;-73
2024/01/13 12:33:27;;;;;;;14.20;8.38;;;;;;;;;;7366353;19;20012;-74
2024/01/13 12:36:03;;;;;;;15.00;8.35;;;;;;;;;;7388434;19;20028;-74
2024/01/13 12:38:31;;;;;;;13.40;7.82;;;;;;;;;;7367057;19;20013;-74
2024/01/13 12:40:58;;;;;;;14.23;8.43;;;;;;;;;;7367332;19;20021;-74
2024/01/13 12:43:25;;;;;;;12.85;8.07;;;;;;;;;;7368000;19;20032;-74
2024/01/13 12:45:54;;;;;;;13.88;8.43;;;;;;;;;;7369270;19;20007;-74
2024/01/13 12:48:20;;;;;;;13.95;8.32;;;;;;;;;;7364714;19;20003;-74
2024/01/13 12:50:46;;;;;;;18.40;8.57;;;;;;;;;;7388443;19;20025;-74
2024/01/13 12:53:11;;;;;;;16.40;8.18;;;;;;;;;;7366477;19;20575;-74
2024/01/13 12:55:37;;;;;;;14.60;9.05;;;;;;;;;;7368164;19;20014;-75
2024/01/13 12:58:03;;;;;;;15.82;9.38;;;;;;;;;;7367797;19;20014;-73
2024/01/13 13:00:29;;;;;;;15.85;9.27;;;;;;;;;;7367567;19;20013;-75
2024/01/13 13:02:57;;;;;;;19.17;8.43;;;;;;;;;;7387907;19;20456;-74
2024/01/13 13:05:23;;;;;;;18.45;9.50;;;;;;;;;;7367248;19;20078;-73
2024/01/13 13:07:50;;;;;;;19.45;8.82;;;;;;;;;;7370467;19;20417;-73
2024/01/13 13:10:15;;;;;;;16.05;8.95;;;;;;;;;;7367326;19;20362;-73
2024/01/13 13:12:49;;;;;;;16.40;8.98;;;;;;;;;;7367415;19;20010;-73
2024/01/13 13:15:18;;;;;;;16.25;9.45;;;;;;;;;;7390319;19;19998;-74
2024/01/13 13:17:44;;;;;;;17.13;9.10;;;;;;;;;;7366500;19;20007;-73
2024/01/13 13:20:10;;;;;;;18.02;9.07;;;;;;;;;;7381634;19;20070;-74
2024/01/13 13:22:38;;;;;;;16.85;8.57;;;;;;;;;;7377383;19;20002;-76
2024/01/13 13:25:05;;;;;;;16.42;8.82;;;;;;;;;;7376622;19;20011;-75
2024/01/13 13:27:31;;;;;;;20.00;10.07;;;;;;;;;;7365857;19;20006;-74
2024/01/13 13:29:57;;;;;;;17.98;9.90;;;;;;;;;;7386529;19;20090;-74
2024/01/13 13:32:22;;;;;;;16.88;9.50;;;;;;;;;;7382007;19;20007;-73
2024/01/13 13:34:47;;;;;;;37.92;20.45;;;;;;;;;;7370887;19;20014;-74
2024/01/13 13:37:13;;;;;;;19.02;10.63;;;;;;;;;;7366761;19;20047;-75
2024/01/13 13:39:38;;;;;;;17.58;8.95;;;;;;;;;;7364598;19;20038;-74
2024/01/13 13:42:05;;;;;;;19.73;8.85;;;;;;;;;;7386873;19;20006;-74
2024/01/13 13:44:32;;;;;;;16.23;8.40;;;;;;;;;;7362556;19;20612;-73
2024/01/13 13:46:58;;;;;;;18.60;8.73;;;;;;;;;;7361609;19;20011;-74
2024/01/13 13:49:23;;;;;;;13.68;7.60;;;;;;;;;;7362085;19;20474;-75
2024/01/13 13:51:51;;;;;;;15.98;8.13;;;;;;;;;;7365970;19;20014;-75
2024/01/13 13:54:16;;;;;;;15.00;8.40;;;;;;;;;;7371744;19;20494;-75
2024/01/13 13:56:42;;;;;;;18.17;8.52;;;;;;;;;;7383349;19;20201;-74
2024/01/13 13:59:07;;;;;;;16.38;8.15;;;;;;;;;;7355023;19;20050;-75
2024/01/13 14:01:32;;;;;;;16.15;8.73;;;;;;;;;;7365222;19;20527;-74
2024/01/13 14:03:58;;;;;;;17.85;8.75;;;;;;;;;;7363239;19;20792;-74
2024/01/13 14:06:24;;;;;;;16.17;8.30;;;;;;;;;;7352205;19;20002;-74
2024/01/13 14:08:49;;;;;;;17.38;8.50;;;;;;;;;;7385346;19;20825;-75
2024/01/13 14:11:15;;;;;;;18.10;8.00;;;;;;;;;;7364363;19;20042;-74
2024/01/13 14:13:40;;;;;;;15.48;7.53;;;;;;;;;;7364170;19;20373;-75
2024/01/13 14:16:06;;;;;;;15.38;7.75;;;;;;;;;;7359934;19;20023;-76